Latest Coastal Weather Observations for Flinders Island Airport

IDV60701

Issued at 2:11 pm EST Wednesday 4 May 2016 (issued every 10 minutes, with the page automatically refreshed every 10 minutes)

About coastal observations | Map of coastal stations | Coastal observations for VIC | Marine services | Other Formats
Station Details ID: 099005 Name: FLINDERS ISLAND AIRPORT Lat: -40.09 Lon: 148.00 Height: 9.0 m
Data from the previous 72 hours. | See also: Recent months at Flinders Island Airport
Date/Time
EST
Temp

°C
Wind Pressure Rain
since 9am
mm
Weather Cloud Vis
km
Sea
Height
m
Swell
Dir
 
Speed
knots
Gust
knots
hPa Trend Height
m
Period
s
Dir
04/02:00pm 15.8 W 17 23 1011.8 - 0.0 - Partly cloudy 10 - - - -
04/01:30pm 15.2 W 18 24 1011.7 - 0.0 - Partly cloudy 10 - - - -
04/01:00pm 15.3 W 18 24 1011.8 - 0.0 - Partly cloudy 10 - - - -
04/12:30pm 14.8 W 20 26 1011.8 - 0.0 - - 10 - - - -
04/12:00pm 14.1 W 21 32 1012.1 - 0.0 - Mostly cloudy 10 - - - -
04/11:52am 14.6 W 18 32 1012.0 - 0.0 - Partly cloudy 10 - - - -
04/11:30am 14.9 W 20 26 1011.9 - 0.0 - Partly cloudy 10 - - - -
04/11:00am 14.6 W 20 26 1011.9 - 0.0 - Partly cloudy 10 - - - -
04/10:30am 15.0 W 20 25 1011.7 - 0.0 - Partly cloudy 10 - - - -
04/10:00am 14.4 W 17 22 1011.2 - 0.0 - Partly cloudy 10 - - - -
04/09:30am 13.9 W 21 28 1010.9 - 0.0 - Partly cloudy 10 - - - -
04/09:00am 13.8 W 20 27 1010.7 - 10.8 - Mostly clear 10 - - - -
04/08:30am 13.2 W 22 29 1010.3 - 10.8 - - 10 - - - -
04/08:00am 12.6 W 25 32 1010.0 - 10.8 - Partly cloudy 10 - - - -
04/07:40am 12.7 W 24 34 1009.7 - 10.8 - Partly cloudy 10 - - - -
04/07:30am 13.0 W 25 31 1009.4 - 10.8 - Partly cloudy 10 - - - -
04/07:00am 12.6 W 23 30 1008.4 - 10.6 - Partly cloudy 10 - - - -
04/06:30am 11.2 W 24 36 1008.5 - 10.6 - Partly cloudy 9 - - - -
04/06:25am 12.4 W 25 36 1008.2 - 10.6 - Partly cloudy 10 - - - -
04/06:00am 12.7 W 21 28 1007.8 - 10.6 Recent precip. Mostly clear 10 - - - -
04/05:39am 11.9 W 20 31 1007.5 - 10.6 - - 10 - - - -
04/05:30am 11.6 W 19 27 1007.5 - 10.6 - Partly cloudy 10 - - - -
04/05:00am 12.0 W 27 39 1007.0 - 10.4 - Partly cloudy 10 - - - -
04/04:30am 10.2 W 24 37 1006.6 - 10.4 - Partly cloudy 7 - - - -
04/04:28am 10.5 W 24 37 1006.6 - 10.4 - Partly cloudy 8 - - - -
04/04:13am 8.7 WSW 29 48 1006.4 - 10.2 - Partly cloudy 2 - - - -
04/04:10am 7.7 WSW 28 48 1006.4 - 10.2 - Partly cloudy 3 - - - -
04/04:09am 8.8 WSW 27 48 1006.2 - 9.6 - Partly cloudy 7 - - - -
04/04:08am 11.3 WSW 25 42 1006.0 - 8.8 - Partly cloudy 10 - - - -
04/04:00am 13.0 W 23 31 1005.5 - 8.8 - Partly cloudy 10 - - - -
04/03:30am 12.9 W 27 40 1005.2 - 8.8 - Partly cloudy 10 - - - -
04/03:16am 12.5 W 25 35 1005.1 - 8.8 - Partly cloudy 10 - - - -
04/03:00am 12.4 W 25 32 1005.0 - 8.8 - Partly cloudy 10 - - - -
04/02:30am 12.8 W 26 35 1004.3 - 8.8 - Partly cloudy 10 - - - -
04/02:08am 12.2 W 25 35 1004.2 - 8.8 - Partly cloudy 10 - - - -
04/02:00am 12.4 W 27 35 1004.1 - 8.8 - Partly cloudy 10 - - - -
04/01:39am 12.8 W 21 30 1003.8 - 8.8 - Partly cloudy 10 - - - -
04/01:30am 12.1 WNW 19 29 1003.7 - 8.8 - Partly cloudy 10 - - - -
04/01:00am 12.7 WNW 24 34 1003.6 - 8.8 - Partly cloudy 10 - - - -
04/12:35am 12.2 W 19 29 1003.6 - 8.8 - Partly cloudy 10 - - - -
04/12:30am 12.1 W 24 31 1003.7 - 8.8 - Partly cloudy 10 - - - -
04/12:13am 12.6 W 22 34 1003.2 - 8.8 - Partly cloudy 10 - - - -
04/12:00am 12.5 W 23 29 1003.2 - 8.8 Recent precip. Partly cloudy 10 - - - -
 
Date/Time
EST
Temp

°C
Wind Pressure Rain
since 9am
mm
Weather Cloud Vis
km
Sea
Height
m
Swell
Dir
 
Speed
knots
Gust
knots
hPa Trend Height
m
Period
s
Dir
03/11:45pm 12.3 W 24 31 1003.0 - 8.8 - Partly cloudy 10 - - - -
03/11:30pm 12.1 WSW 30 38 1002.9 - 8.8 - Partly cloudy 10 - - - -
03/11:19pm 12.4 W 27 38 1002.5 - 8.8 - Partly cloudy 10 - - - -
03/11:00pm 13.4 W 22 31 1002.2 - 8.4 - Partly cloudy 10 - - - -
03/10:30pm 13.1 W 23 29 1002.2 - 8.4 - Partly cloudy 10 - - - -
03/10:00pm 13.4 W 26 32 1002.0 - 8.4 - Partly cloudy 10 - - - -
03/09:34pm 13.6 W 26 36 1001.9 - 8.4 - Partly cloudy 10 - - - -
03/09:30pm 13.7 W 27 36 1001.8 - 8.4 - Partly cloudy 10 - - - -
03/09:00pm 13.8 W 27 37 1001.3 - 8.4 - Cloudy 10 - - - -
03/08:44pm 13.6 W 26 36 1001.1 - 8.4 - Partly cloudy 10 - - - -
03/08:30pm 13.2 W 29 36 1000.9 - 8.4 - Partly cloudy 10 - - - -
03/08:06pm 13.2 W 29 42 1000.4 - 8.4 - Partly cloudy 10 - - - -
03/08:00pm 13.2 W 30 36 1000.4 - 8.4 - Partly cloudy 10 - - - -
03/07:30pm 13.9 W 32 42 999.6 - 8.4 - Partly cloudy 10 - - - -
03/07:15pm 13.9 W 31 41 999.0 - 8.4 - Partly cloudy 10 - - - -
03/07:00pm 13.6 W 28 36 998.6 - 8.4 - Partly cloudy 10 - - - -
03/06:34pm 12.7 W 23 33 998.1 - 8.4 - Partly cloudy 10 - - - -
03/06:30pm 12.5 W 25 35 998.4 - 8.4 - Partly cloudy 10 - - - -
03/06:23pm 12.1 W 29 39 998.2 - 8.4 - Partly cloudy 4 - - - -
03/06:16pm 12.4 W 31 39 998.2 - 8.4 - Partly cloudy 5 - - - -
03/06:00pm 12.8 W 26 37 997.8 - 8.0 Rain Cloudy 8 - - - -
03/05:59pm 12.8 W 27 37 997.7 - 7.8 - Partly cloudy 7 - - - -
03/05:57pm 12.8 W 29 39 997.7 - 7.8 - Partly cloudy 7 - - - -
03/05:32pm 13.2 W 27 35 996.7 - 7.4 - Partly cloudy 5 - - - -
03/05:30pm 13.3 W 27 35 996.7 - 7.2 - Partly cloudy 7 - - - -
03/05:20pm 13.2 W 23 34 996.4 - 7.0 - Partly cloudy 10 - - - -
03/05:17pm 13.1 W 22 30 996.3 - 7.0 - Partly cloudy 10 - - - -
03/05:14pm 13.0 W 24 31 996.2 - 7.0 - Partly cloudy 10 - - - -
03/05:00pm 12.9 W 30 41 995.8 - 7.0 - Partly cloudy 5 - - - -
03/04:57pm 13.4 W 29 40 995.6 - 7.0 - Partly cloudy 8 - - - -
03/04:50pm 13.3 W 30 36 995.3 - 7.0 - Partly cloudy 7 - - - -
03/04:43pm 12.9 WSW 34 44 995.0 - 7.0 - Partly cloudy 3 - - - -
03/04:30pm 13.6 W 32 41 993.9 - 6.2 - Partly cloudy 4 - - - -
03/04:25pm 13.8 WNW 30 41 993.8 - 6.0 - Partly cloudy 2 - - - -
03/04:00pm 15.6 NW 25 40 993.0 - 1.8 - Partly cloudy 4 - - - -
03/03:53pm 16.4 NW 26 38 993.2 - 1.4 - Partly cloudy 5 - - - -
03/03:51pm 16.3 NW 27 37 993.2 - 1.2 - Partly cloudy 7 - - - -
03/03:35pm 16.1 WNW 28 40 993.0 - 1.0 - Partly cloudy 5 - - - -
03/03:30pm 16.9 WNW 25 35 993.2 - 1.0 - Partly cloudy 10 - - - -
03/03:14pm 16.7 NW 19 30 993.4 - 0.8 - Partly cloudy 8 - - - -
03/03:00pm 17.7 NW 21 29 993.4 - 0.6 Recent precip. Cloudy 10 - - - -
03/02:30pm 16.2 NW 23 36 994.0 - 0.6 - Partly cloudy 10 - - - -
03/02:14pm 15.7 NW 26 38 994.2 - 0.4 - Partly cloudy 5 - - - -
03/02:10pm 16.0 NW 24 38 994.3 - 0.4 - Partly cloudy 7 - - - -
03/02:00pm 16.4 NW 23 30 994.2 - 0.4 - Partly cloudy 10 - - - -
03/01:30pm 16.7 NW 29 40 994.8 - 0.2 - Partly cloudy 8 - - - -
03/01:24pm 17.1 NW 24 40 994.7 - 0.2 - Partly cloudy 10 - - - -
03/01:10pm 16.9 NNW 18 30 994.5 - 0.0 - Cloudy 10 - - - -
03/01:00pm 16.8 NNW 18 26 994.4 - 0.0 - Partly cloudy 10 - - - -
03/12:40pm 15.9 NNW 18 27 995.1 - 0.0 - Partly cloudy 10 - - - -
03/12:38pm 15.9 NNW 19 28 995.1 - 0.0 - Partly cloudy 10 - - - -
03/12:30pm 16.0 NNW 25 42 995.6 - 0.0 - Partly cloudy 6 - - - -
03/12:11pm 16.7 NW 26 42 995.9 - 0.0 - Partly cloudy 5 - - - -
03/12:00pm 18.4 NNW 19 29 995.6 - 0.0 - Cloudy 10 - - - -
03/11:30am 18.7 NNW 19 30 995.6 - 0.0 - Cloudy 10 - - - -
03/11:00am 19.6 NNW 25 41 996.0 - 0.0 - Cloudy 10 - - - -
03/10:30am 18.9 NNW 22 34 996.4 - 0.0 - Partly cloudy 10 - - - -
03/10:00am 19.4 NNW 24 38 996.8 - 0.0 - Partly cloudy 10 - - - -
03/09:30am 18.7 NNW 23 37 997.3 - 0.0 - Partly cloudy 10 - - - -
03/09:00am 18.6 NNW 19 33 997.6 - 0.0 - Cloudy 10 - - - -
03/08:30am 17.9 NNW 20 33 997.9 - 0.0 - Partly cloudy 10 - - - -
03/08:00am 17.6 NNW 20 30 998.2 - 0.0 - - 10 - - - -
03/07:30am 17.5 NNW 22 32 998.5 - 0.0 - - 10 - - - -
03/07:00am 17.1 NNW 22 32 998.5 - 0.0 - - 10 - - - -
03/06:30am 16.8 NNW 22 35 998.6 - 0.0 - - 10 - - - -
03/06:00am 16.7 NNW 21 34 998.9 - 0.0 - Partly cloudy 10 - - - -
03/05:30am 16.6 NNW 20 32 999.4 - 0.0 - Partly cloudy 10 - - - -
03/05:00am 16.5 NNW 22 34 999.7 - 0.0 - - 10 - - - -
03/04:36am 16.6 NNW 21 31 999.7 - 0.0 - - 10 - - - -
03/04:30am 16.5 NNW 22 31 999.6 - 0.0 - - 10 - - - -
03/04:09am 16.2 NNW 16 29 999.8 - 0.0 - - 10 - - - -
03/04:00am 16.0 NNW 15 21 999.9 - 0.0 - Partly cloudy 10 - - - -
03/03:30am 16.2 NNW 21 33 1000.5 - 0.0 - - 10 - - - -
03/03:00am 16.1 NNW 19 31 1000.9 - 0.0 - - 10 - - - -
03/02:30am 16.1 NNW 17 27 1001.3 - 0.0 - - 10 - - - -
03/02:05am 15.9 NNW 17 28 1001.6 - 0.0 - Partly cloudy 10 - - - -
03/02:00am 16.1 NNW 15 23 1001.7 - 0.0 - Partly cloudy 10 - - - -
03/01:34am 16.0 NNW 16 26 1002.1 - 0.0 - Partly cloudy 10 - - - -
03/01:30am 16.0 NNW 16 23 1002.2 - 0.0 - Partly cloudy 10 - - - -
03/01:00am 16.0 NNW 17 27 1002.7 - 0.0 - Partly cloudy 10 - - - -
03/12:39am 15.8 NNW 16 26 1003.1 - 0.0 - Partly cloudy 10 - - - -
03/12:30am 15.8 NNW 17 26 1003.3 - 0.0 - Partly cloudy 10 - - - -
03/12:09am 15.7 NNW 16 26 1003.5 - 0.0 - - 10 - - - -
03/12:00am 15.7 NNW 18 26 1003.6 - 0.0 - - 10 - - - -
 
Date/Time
EST
Temp

°C
Wind Pressure Rain
since 9am
mm
Weather Cloud Vis
km
Sea
Height
m
Swell
Dir
 
Speed
knots
Gust
knots
hPa Trend Height
m
Period
s
Dir
02/11:30pm 15.8 NNW 18 29 1004.0 - 0.0 - - 10 - - - -
02/11:19pm 15.7 NNW 17 27 1004.1 - 0.0 - - 10 - - - -
02/11:00pm 15.6 NNW 19 26 1004.6 - 0.0 - - 10 - - - -
02/10:30pm 15.5 NNW 18 29 1004.9 - 0.0 - - 10 - - - -
02/10:01pm 15.5 NNW 17 27 1005.2 - 0.0 - Partly cloudy 10 - - - -
02/10:00pm 15.3 NNW 17 26 1005.2 - 0.0 - Partly cloudy 10 - - - -
02/09:32pm 15.6 NNW 19 30 1005.6 - 0.0 - - 10 - - - -
02/09:30pm 15.4 NNW 19 27 1005.6 - 0.0 - - 10 - - - -
02/09:00pm 15.3 NNW 18 26 1005.7 - 0.0 - - 10 - - - -
02/08:44pm 15.3 NNW 15 27 1005.7 - 0.0 - - 10 - - - -
02/08:30pm 15.6 NNW 17 23 1005.8 - 0.0 - - 10 - - - -
02/08:05pm 15.4 NNW 17 27 1006.0 - 0.0 - - 10 - - - -
02/08:00pm 15.5 NNW 16 24 1006.0 - 0.0 - - 10 - - - -
02/07:43pm 15.6 NW 18 30 1006.0 - 0.0 - - 10 - - - -
02/07:30pm 15.4 NW 19 28 1006.0 - 0.0 - - 10 - - - -
02/07:18pm 15.6 NW 19 29 1006.0 - 0.0 - Partly cloudy 10 - - - -
02/07:00pm 15.2 NNW 15 21 1006.2 - 0.0 - Partly cloudy 10 - - - -
02/06:36pm 15.4 NNW 17 27 1006.3 - 0.0 - Partly cloudy 10 - - - -
02/06:30pm 15.1 NNW 17 25 1006.4 - 0.0 - Partly cloudy 10 - - - -
02/06:00pm 15.1 NNW 17 24 1006.4 - 0.0 - Partly cloudy 10 - - - -
02/05:30pm 15.2 NW 17 26 1006.5 - 0.0 - Partly cloudy 10 - - - -
02/05:00pm 15.5 NW 21 27 1006.4 - 0.0 - Partly cloudy 10 - - - -
02/04:30pm 15.8 NW 22 28 1006.7 - 0.0 - Partly cloudy 10 - - - -
02/04:00pm 15.5 NW 25 33 1007.1 - 0.0 - Partly cloudy 10 - - - -
02/03:30pm 16.1 NW 22 29 1007.1 - 0.0 - - 10 - - - -
02/03:02pm 16.1 WNW 23 33 1006.9 - 0.0 - Partly cloudy 10 - - - -
02/03:00pm 16.2 WNW 22 31 1006.8 - 0.0 - Mostly clear 10 - - - -
02/02:30pm 16.1 NW 23 33 1006.9 - 0.0 - Partly cloudy 10 - - - -
02/02:27pm 16.0 NW 23 33 1007.0 - 0.0 - Partly cloudy 10 - - - -
02/02:00pm 16.6 WNW 23 32 1007.2 - 0.0 - Partly cloudy 10 - - - -
02/01:30pm 16.0 NW 23 30 1007.2 - 0.0 - Partly cloudy 10 - - - -
02/01:00pm 15.4 WNW 23 30 1007.4 - 0.0 - Partly cloudy 10 - - - -
02/12:40pm 15.8 NW 23 33 1007.5 - 0.0 - Partly cloudy 10 - - - -
02/12:30pm 15.3 NW 24 32 1007.6 - 0.0 - Partly cloudy 10 - - - -
02/12:12pm 15.4 NW 24 34 1007.9 - 0.0 - Partly cloudy 10 - - - -
02/12:00pm 15.5 NW 26 34 1008.2 - 0.0 - Cloudy 10 - - - -
02/11:48am 15.3 NW 24 34 1008.2 - 0.0 - Partly cloudy 10 - - - -
02/11:30am 14.9 NW 25 32 1008.6 - 0.0 - Partly cloudy 10 - - - -
02/11:14am 15.6 NW 23 34 1008.7 - 0.0 - Partly cloudy 10 - - - -
02/11:00am 15.1 NW 25 33 1008.9 - 0.0 - Partly cloudy 10 - - - -
02/10:30am 14.4 NW 23 30 1009.0 - 0.0 - Partly cloudy 10 - - - -
02/10:00am 14.6 NW 20 28 1009.0 - 0.0 - Partly cloudy 10 - - - -
02/09:49am 14.7 WNW 20 30 1008.9 - 0.0 - Partly cloudy 10 - - - -
02/09:30am 14.1 WNW 22 31 1009.1 - 0.0 - Partly cloudy 10 - - - -
02/09:07am 14.1 WNW 18 29 1009.1 - 0.0 - Partly cloudy 10 - - - -
02/09:00am 13.9 WNW 17 23 1009.1 - 4.4 Recent precip. Mostly cloudy 10 - - - -
02/08:30am 13.2 WNW 21 32 1009.5 - 4.4 - Partly cloudy 10 - - - -
02/08:29am 13.3 WNW 20 32 1009.5 - 4.4 - Partly cloudy 10 - - - -
02/08:19am 12.9 WNW 21 30 1009.5 - 4.4 - Partly cloudy 10 - - - -
02/08:03am 12.8 WNW 20 30 1009.5 - 4.4 - Partly cloudy 5 - - - -
02/08:00am 13.4 WNW 20 30 1009.6 - 4.2 - Partly cloudy 10 - - - -
02/07:30am 13.7 WNW 22 31 1009.1 - 4.0 - Partly cloudy 10 - - - -
02/07:00am 13.5 WNW 19 30 1008.8 - 4.0 - Partly cloudy 10 - - - -
02/06:52am 13.6 WNW 20 30 1008.8 - 4.0 - Partly cloudy 10 - - - -
02/06:30am 13.8 WNW 20 27 1008.7 - 4.0 - Partly cloudy 10 - - - -
02/06:00am 13.4 W 21 28 1008.6 - 4.0 Recent precip. Cloudy 10 - - - -
02/05:48am 13.1 W 24 34 1008.7 - 3.8 - Partly cloudy 7 - - - -
02/05:30am 14.3 W 23 29 1008.5 - 3.8 - Partly cloudy 10 - - - -
02/05:00am 13.9 W 24 33 1008.4 - 3.8 - Partly cloudy 10 - - - -
02/04:54am 13.8 W 25 35 1008.3 - 3.8 - Partly cloudy 10 - - - -
02/04:30am 13.6 WSW 29 36 1008.1 - 3.8 - Partly cloudy 10 - - - -
02/04:00am 13.6 W 28 39 1008.0 - 3.8 - - 10 - - - -
02/03:43am 13.1 W 29 39 1007.9 - 3.8 - Partly cloudy 10 - - - -
02/03:30am 12.8 WSW 31 39 1008.0 - 3.8 - Partly cloudy 10 - - - -
02/03:16am 13.7 W 27 38 1007.9 - 3.8 - Partly cloudy 10 - - - -
02/03:00am 13.9 W 24 32 1007.9 - 3.8 - Partly cloudy 10 - - - -
02/02:52am 13.8 W 26 36 1007.9 - 3.8 - Partly cloudy 10 - - - -
02/02:30am 13.4 W 27 36 1008.1 - 3.8 - Partly cloudy 10 - - - -
02/02:01am 13.2 W 30 40 1008.2 - 3.8 - Partly cloudy 10 - - - -
02/02:00am 13.1 W 31 40 1008.2 - 3.8 - Partly cloudy 10 - - - -
02/01:37am 12.9 W 26 38 1008.2 - 3.8 - Partly cloudy 10 - - - -
02/01:30am 12.7 W 26 32 1008.0 - 3.8 - Partly cloudy 10 - - - -
02/01:01am 12.4 W 26 36 1008.1 - 3.8 - Partly cloudy 10 - - - -
02/01:00am 12.3 W 26 36 1008.1 - 3.8 - Partly cloudy 10 - - - -
02/12:44am 12.2 W 25 35 1008.3 - 3.4 - Partly cloudy 5 - - - -
02/12:39am 12.5 W 27 35 1008.3 - 3.2 - Partly cloudy 5 - - - -
02/12:30am 13.7 W 26 34 1007.9 - 2.8 - Partly cloudy 10 - - - -
02/12:00am 13.0 W 31 40 1007.8 - 2.8 Recent precip. Mostly cloudy 10 - - - -
 
Date/Time
EST
Temp

°C
Wind Pressure Rain
since 9am
mm
Weather Cloud Vis
km
Sea
Height
m
Swell
Dir
 
Speed
knots
Gust
knots
hPa Trend Height
m
Period
s
Dir
01/11:39pm 13.3 W 32 43 1007.9 - 2.6 - Partly cloudy 10 - - - -
01/11:30pm 13.8 W 30 37 1007.4 - 2.6 - Partly cloudy 10 - - - -
01/11:00pm 12.9 W 31 42 1007.7 - 2.6 - Partly cloudy 10 - - - -
01/10:30pm 14.1 W 33 44 1007.3 - 2.6 - Partly cloudy 10 - - - -
01/10:00pm 14.0 W 31 43 1007.3 - 2.6 - Partly cloudy 10 - - - -
01/09:41pm 14.3 W 36 46 1006.9 - 2.6 - Partly cloudy 10 - - - -
01/09:30pm 14.0 W 36 45 1006.9 - 2.6 - Partly cloudy 10 - - - -
01/09:23pm 14.3 W 35 45 1006.6 - 2.6 - Partly cloudy 10 - - - -
01/09:00pm 14.2 W 34 42 1006.3 - 2.6 - Cloudy 10 - - - -
01/08:32pm 14.3 W 36 46 1005.6 - 2.6 - Partly cloudy 10 - - - -
01/08:30pm 14.3 W 36 44 1005.5 - 2.6 - Partly cloudy 10 - - - -
01/08:01pm 14.1 W 37 49 1004.8 - 2.6 - Partly cloudy 10 - - - -
01/08:00pm 14.2 W 37 45 1004.8 - 2.6 - Partly cloudy 10 - - - -
01/07:30pm 14.1 W 39 50 1004.4 - 2.6 - Partly cloudy 10 - - - -
01/07:00pm 14.2 W 38 50 1004.0 - 2.6 - Partly cloudy 10 - - - -
01/06:32pm 14.1 W 31 43 1003.2 - 2.6 - Partly cloudy 10 - - - -
01/06:30pm 14.1 W 31 40 1003.2 - 2.6 - Partly cloudy 10 - - - -
01/06:00pm 14.1 W 31 46 1003.4 - 2.6 Recent precip. Cloudy 10 - - - -
01/05:41pm 12.9 W 30 42 1003.3 - 2.6 - Partly cloudy 10 - - - -
01/05:30pm 12.8 W 33 47 1003.1 - 2.6 - Partly cloudy 4 - - - -
01/05:22pm 12.2 W 38 48 1003.0 - 2.4 - Partly cloudy 5 - - - -
01/05:00pm 14.1 W 34 44 1002.3 - 2.0 - Partly cloudy 10 - - - -
01/04:37pm 13.7 W 33 44 1001.8 - 2.0 - Partly cloudy 10 - - - -
01/04:30pm 13.5 W 32 42 1001.7 - 2.0 - Partly cloudy 9 - - - -
01/04:19pm 13.0 W 31 47 1001.8 - 2.0 - Partly cloudy 5 - - - -
01/04:00pm 14.7 W 33 44 1001.2 - 1.6 - Partly cloudy 10 - - - -
01/03:30pm 14.9 W 33 43 1000.8 - 1.6 - Partly cloudy 10 - - - -
01/03:17pm 14.9 W 32 44 1000.6 - 1.6 - Partly cloudy 10 - - - -
01/03:07pm 14.1 WNW 33 41 1000.6 - 1.6 - Partly cloudy 10 - - - -
01/03:00pm 13.7 W 33 45 1000.5 - 1.6 Rain Cloudy 8 - - - -
01/02:53pm 13.4 W 37 50 1000.4 - 1.6 - Partly cloudy 5 - - - -
01/02:30pm 14.5 W 31 43 999.9 - 1.2 - Partly cloudy 10 - - - -

Other Formats:

Comma delimited format used in spreadsheet applications
http://www.bom.gov.au/fwo/IDV60701/IDV60701.94980.axf

JavaScript Object Notation format (JSON) in row-major order
http://www.bom.gov.au/fwo/IDV60701/IDV60701.94980.json